Map

Track Data

SID SEASON NUMBER BASIN SUBBASIN NAME ISO_TIME NATURE LAT LON WMO_WIND WMO_PRES WMO_AGENCY TRACK_TYPE DIST2LAND LANDFALL IFLAG USA_AGENCY USA_ATCF_ID USA_LAT USA_LON USA_RECORD USA_STATUS USA_WIND USA_PRES USA_SSHS USA_R34_NE USA_R34_SE USA_R34_SW USA_R34_NW USA_R50_NE USA_R50_SE USA_R50_SW USA_R50_NW USA_R64_NE USA_R64_SE USA_R64_SW USA_R64_NW USA_POCI USA_ROCI USA_RMW USA_EYE TOKYO_LAT TOKYO_LON TOKYO_GRADE TOKYO_WIND TOKYO_PRES TOKYO_R50_DIR TOKYO_R50_LONG TOKYO_R50_SHORT TOKYO_R30_DIR TOKYO_R30_LONG TOKYO_R30_SHORT TOKYO_LAND CMA_LAT CMA_LON CMA_CAT CMA_WIND CMA_PRES HKO_LAT HKO_LON HKO_CAT HKO_WIND HKO_PRES NEWDELHI_LAT NEWDELHI_LON NEWDELHI_GRADE NEWDELHI_WIND NEWDELHI_PRES NEWDELHI_CI NEWDELHI_DP NEWDELHI_POCI REUNION_LAT REUNION_LON REUNION_TYPE REUNION_WIND REUNION_PRES REUNION_TNUM REUNION_CI REUNION_RMW REUNION_R34_NE REUNION_R34_SE REUNION_R34_SW REUNION_R34_NW REUNION_R50_NE REUNION_R50_SE REUNION_R50_SW REUNION_R50_NW REUNION_R64_NE REUNION_R64_SE REUNION_R64_SW REUNION_R64_NW BOM_LAT BOM_LON BOM_TYPE BOM_WIND BOM_PRES BOM_TNUM BOM_CI BOM_RMW BOM_R34_NE BOM_R34_SE BOM_R34_SW BOM_R34_NW BOM_R50_NE BOM_R50_SE BOM_R50_SW BOM_R50_NW BOM_R64_NE BOM_R64_SE BOM_R64_SW BOM_R64_NW BOM_ROCI BOM_POCI BOM_EYE BOM_POS_METHOD BOM_PRES_METHOD NADI_LAT NADI_LON NADI_CAT NADI_WIND NADI_PRES WELLINGTON_LAT WELLINGTON_LON WELLINGTON_WIND WELLINGTON_PRES DS824_LAT DS824_LON DS824_STAGE DS824_WIND DS824_PRES TD9636_LAT TD9636_LON TD9636_STAGE TD9636_WIND TD9636_PRES TD9635_LAT TD9635_LON TD9635_WIND TD9635_PRES TD9635_ROCI NEUMANN_LAT NEUMANN_LON NEUMANN_CLASS NEUMANN_WIND NEUMANN_PRES MLC_LAT MLC_LON MLC_CLASS MLC_WIND MLC_PRES USA_GUST BOM_GUST BOM_GUST_PER REUNION_GUST REUNION_GUST_PER USA_SEAHGT USA_SEARAD_NE USA_SEARAD_SE USA_SEARAD_SW USA_SEARAD_NW STORM_SPEED STORM_DIR
1949262N16092 1949 80 NI BB NOT_NAMED 1949-09-18 18:00:00 TS 15.9000 92.4000 main 192 192 O________O____ jtwc_io IO101949 15.9000 92.4000 -1 15.9000 92.4000 TC 12 280
1949262N16092 1949 80 NI BB NOT_NAMED 1949-09-18 21:00:00 TS 16.0078 91.7626 main 256 256 P________P____ IO101949 16.0078 91.7626 -1 16.0078 91.7626 TC 13 279
1949262N16092 1949 80 NI BB NOT_NAMED 1949-09-19 00:00:00 TS 16.1000 91.1000 main 331 331 O________O____ jtwc_io IO101949 16.1000 91.1000 -1 16.1000 91.1000 TC 25 13 277
1949262N16092 1949 80 NI BB NOT_NAMED 1949-09-19 03:00:00 TS 16.1688 90.4000 main 406 406 P________PO___ IO101949 16.1649 90.4000 -1 16.1649 90.4000 TC 25 16.2000 90.4000 1 13 274
1949262N16092 1949 80 NI BB NOT_NAMED 1949-09-19 06:00:00 TS 16.2015 89.7094 main 481 481 O________OP___ jtwc_io IO101949 16.2000 89.7000 -1 16.2000 89.7000 TC 25 16.2076 89.7469 1 13 272
1949262N16092 1949 80 NI BB NOT_NAMED 1949-09-19 09:00:00 TS 16.2084 89.0513 main 512 474 P________PP___ IO101949 16.2073 89.0349 -1 16.2073 89.0349 TC 25 16.2114 89.0950 1 12 270
1949262N16092 1949 80 NI BB NOT_NAMED 1949-09-19 12:00:00 TS 16.2032 88.4152 main 474 447 O________OP___ jtwc_io IO101949 16.2000 88.4000 -1 16.2000 88.4000 TC 25 16.2095 88.4456 1 12 270
1949262N16092 1949 80 NI BB NOT_NAMED 1949-09-19 15:00:00 TS 16.2048 87.8000 main 447 400 P________PO___ IO101949 16.2072 87.8001 -1 16.2072 87.8001 TC 25 16.2000 87.8000 1 12 270
1949262N16092 1949 80 NI BB NOT_NAMED 1949-09-19 18:00:00 TS 16.1940 87.1871 main 400 354 O________OP___ jtwc_io IO101949 16.2000 87.2000 -1 16.2000 87.2000 TC 25 16.1819 87.1613 1 12 268
1949262N16092 1949 80 NI BB NOT_NAMED 1949-09-19 21:00:00 TS 16.1525 86.5366 main 346 311 P________PP___ IO101949 16.1501 86.5349 -1 16.1501 86.5349 TC 25 16.1573 86.5400 1 12 266
1949262N16092 1949 80 NI BB NOT_NAMED 1949-09-20 00:00:00 TS 16.1096 85.9163 main 311 282 O________OP___ jtwc_io IO101949 16.1000 85.9000 -1 16.1000 85.9000 TC 25 16.1289 85.9487 1 11 267
1949262N16092 1949 80 NI BB NOT_NAMED 1949-09-20 03:00:00 TS 16.0998 85.3801 main 282 246 P________PO___ IO101949 16.0998 85.3701 -1 16.0998 85.3701 TC 25 16.1000 85.4000 1 10 269
1949262N16092 1949 80 NI BB NOT_NAMED 1949-09-20 06:00:00 TS 16.0860 84.8995 main 246 217 O________OP___ jtwc_io IO101949 16.1000 84.9000 -1 16.1000 84.9000 TC 25 16.0581 84.8986 1 9 266
1949262N16092 1949 80 NI BB NOT_NAMED 1949-09-20 09:00:00 TS 16.0397 84.4365 main 219 192 P________PP___ IO101949 16.0499 84.4349 -1 16.0499 84.4349 TC 25 16.0192 84.4398 1 9 264
1949262N16092 1949 80 NI BB NOT_NAMED 1949-09-20 12:00:00 TS 15.9986 84.0037 main 192 154 O________OP___ jtwc_io IO101949 16.0000 84.0000 -1 16.0000 84.0000 TC 25 15.9957 84.0111 1 8 266
1949262N16092 1949 80 NI BB NOT_NAMED 1949-09-20 15:00:00 TS 15.9849 83.6000 main 154 117 P________PO___ IO101949 15.9773 83.6000 -1 15.9773 83.6000 TC 25 16.0000 83.6000 1 8 271
1949262N16092 1949 80 NI BB NOT_NAMED 1949-09-20 18:00:00 TS 16.0168 83.1858 main 117 77 O________OP___ jtwc_io IO101949 16.0000 83.2000 -1 16.0000 83.2000 TC 25 16.0503 83.1575 1 8 278
1949262N16092 1949 80 NI BB NOT_NAMED 1949-09-20 21:00:00 TS 16.1042 82.7344 main 70 39 P________PP___ IO101949 16.0926 82.7351 -1 16.0926 82.7351 TC 25 16.1275 82.7330 1 9 283
1949262N16092 1949 80 NI BB NOT_NAMED 1949-09-21 00:00:00 TS 16.2053 82.3140 main 39 15 O________OP___ jtwc_io IO101949 16.2000 82.3000 -1 16.2000 82.3000 TC 25 16.2160 82.3419 1 7 283
1949262N16092 1949 80 NI BB NOT_NAMED 1949-09-21 03:00:00 TS 16.2716 81.9750 main 15 0 P________PO___ IO101949 16.2574 81.9624 -1 16.2574 81.9624 TC 25 16.3000 82.0000 1 6 281
1949262N16092 1949 80 NI BB NOT_NAMED 1949-09-21 06:00:00 TS 16.3189 81.7055 main 0 0 O________OP___ jtwc_io IO101949 16.3000 81.7000 -1 16.3000 81.7000 TC 25 16.3568 81.7164 1 5 282
1949262N16092 1949 80 NI BB NOT_NAMED 1949-09-21 09:00:00 TS 16.3690 81.4841 main 0 0 P________PP___ IO101949 16.3499 81.4850 -1 16.3499 81.4850 TC 25 16.4071 81.4823 1 4 284
1949262N16092 1949 80 NI BB NOT_NAMED 1949-09-21 12:00:00 TS 16.4179 81.2940 main 0 0 O________OP___ jtwc_io IO101949 16.4000 81.3000 -1 16.4000 81.3000 TC 25 16.4538 81.2821 1 4 285
1949262N16092 1949 80 NI BB NOT_NAMED 1949-09-21 15:00:00 TS 16.4667 81.0950 main 0 0 P________PO___ IO101949 16.4500 81.0925 -1 16.4500 81.0925 TC 25 16.5000 81.1000 1 4 284
1949262N16092 1949 80 NI BB NOT_NAMED 1949-09-21 18:00:00 TS 16.5111 80.9170 main 0 0 O________OP___ jtwc_io IO101949 16.5000 80.9000 -1 16.5000 80.9000 TC 25 16.5333 80.9509 1 3 285
1949262N16092 1949 80 NI BB NOT_NAMED 1949-09-21 21:00:00 TS 16.5514 80.7748 main 0 0 P________PP___ IO101949 16.5424 80.7574 -1 16.5424 80.7574 TC 25 16.5693 80.8095 1 3 288
1949262N16092 1949 80 NI BB NOT_NAMED 1949-09-22 00:00:00 TS 16.6069 80.6128 main 0 0 O________OP___ jtwc_io IO101949 16.6000 80.6000 -1 16.6000 80.6000 TC 25 16.6207 80.6383 1 4 291
1949262N16092 1949 80 NI BB NOT_NAMED 1949-09-22 03:00:00 TS 16.6899 80.4016 main 0 0 P________PO___ IO101949 16.6848 80.4024 -1 16.6848 80.4024 TC 25 16.7000 80.4000 1 6 291
1949262N16092 1949 80 NI BB NOT_NAMED 1949-09-22 06:00:00 TS 16.8032 80.0742 main 0 0 O________OP___ jtwc_io IO101949 16.8000 80.1000 -1 16.8000 80.1000 TC 25 16.8097 80.0227 1 8 288
1949262N16092 1949 80 NI BB NOT_NAMED 1949-09-22 09:00:00 TS 16.9396 79.6035 main 0 0 P________PP___ IO101949 16.9353 79.6151 -1 16.9353 79.6151 TC 25 16.9484 79.5803 1 10 288
1949262N16092 1949 80 NI BB NOT_NAMED 1949-09-22 12:00:00 TS 17.1043 79.1076 main 0 0 O________OP___ jtwc_io IO101949 17.1000 79.1000 -1 17.1000 79.1000 TC 25 17.1128 79.1227 1 9 293
1949262N16092 1949 80 NI BB NOT_NAMED 1949-09-22 15:00:00 TS 17.2949 78.7133 main 0 0 P________PO___ IO101949 17.2923 78.7199 -1 17.2923 78.7199 TC 25 17.3000 78.7000 1 8 300
1949262N16092 1949 80 NI BB NOT_NAMED 1949-09-22 18:00:00 TS 17.5028 78.3803 main 0 0 O________OP___ jtwc_io IO101949 17.5000 78.4000 -1 17.5000 78.4000 TC 25 17.5070 78.3507 1 7 305
1949262N16092 1949 80 NI BB NOT_NAMED 1949-09-22 21:00:00 TS 17.7141 78.0837 main 0 0 P________PP___ IO101949 17.7026 78.0976 -1 17.7026 78.0976 TC 25 17.7295 78.0652 1 7 308
1949262N16092 1949 80 NI AS NOT_NAMED 1949-09-23 00:00:00 TS 17.9311 77.8111 main 0 0 O________OP___ jtwc_io IO101949 17.9000 77.8000 -1 17.9000 77.8000 TC 25 17.9622 77.8221 1 7 317
1949262N16092 1949 80 NI AS NOT_NAMED 1949-09-23 03:00:00 NR 18.2000 77.6000 main 0 __________O___ IO101949 -1 TC 18.2000 77.6000 1 7 323

About IBTrACS Database

This database is a web-friendly format of International Best Track Archive for Climate Stewardship (IBTrACS), a global best track data archive curated by NOAA dating back to 1842.

Updated: 2021-10-08